sensor_id;sensor_type;location;lat;lon;timestamp;noise_LAeq;noise_LA_min;noise_LA_max;noise_LA01;noise_LA95
49215;Laerm;45943;53.148;8.204;2022-09-21T00:02:06;44.73;39.34;57.75;;
49215;Laerm;45943;53.148;8.204;2022-09-21T00:04:32;44.45;38.12;61.29;;
49215;Laerm;45943;53.148;8.204;2022-09-21T00:06:58;47.34;42.06;57.82;;
49215;Laerm;45943;53.148;8.204;2022-09-21T00:09:24;44.56;40.18;54.09;;
49215;Laerm;45943;53.148;8.204;2022-09-21T00:11:50;47.84;41.03;56.84;;
49215;Laerm;45943;53.148;8.204;2022-09-21T00:14:17;66.23;42.28;78.28;;
49215;Laerm;45943;53.148;8.204;2022-09-21T00:16:44;46.12;38.12;58.29;;
49215;Laerm;45943;53.148;8.204;2022-09-21T00:19:11;43.60;37.92;52.07;;
49215;Laerm;45943;53.148;8.204;2022-09-21T00:21:37;45.64;39.27;55.02;;
49215;Laerm;45943;53.148;8.204;2022-09-21T00:24:05;42.15;37.72;50.89;;
49215;Laerm;45943;53.148;8.204;2022-09-21T00:26:31;46.24;39.81;54.07;;
49215;Laerm;45943;53.148;8.204;2022-09-21T00:28:59;51.67;39.41;68.79;;
49215;Laerm;45943;53.148;8.204;2022-09-21T00:31:27;45.01;40.18;52.43;;
49215;Laerm;45943;53.148;8.204;2022-09-21T00:33:54;44.80;38.81;55.81;;
49215;Laerm;45943;53.148;8.204;2022-09-21T00:36:22;45.59;39.68;53.41;;
49215;Laerm;45943;53.148;8.204;2022-09-21T00:38:51;45.62;38.81;57.24;;
49215;Laerm;45943;53.148;8.204;2022-09-21T00:41:18;44.55;39.41;57.20;;
49215;Laerm;45943;53.148;8.204;2022-09-21T00:44:30;42.75;37.29;53.54;;
49215;Laerm;45943;53.148;8.204;2022-09-21T00:46:36;48.14;41.03;57.16;;
49215;Laerm;45943;53.148;8.204;2022-09-21T00:49:04;65.69;42.13;79.01;;
49215;Laerm;45943;53.148;8.204;2022-09-21T00:51:30;58.96;41.66;71.66;;
49215;Laerm;45943;53.148;8.204;2022-09-21T00:54:01;42.87;37.29;48.73;;
49215;Laerm;45943;53.148;8.204;2022-09-21T00:56:29;45.20;38.81;53.66;;
49215;Laerm;45943;53.148;8.204;2022-09-21T00:58:56;42.29;36.80;48.43;;
49215;Laerm;45943;53.148;8.204;2022-09-21T01:01:22;48.39;38.81;60.69;;
49215;Laerm;45943;53.148;8.204;2022-09-21T01:03:50;45.20;39.68;55.32;;
49215;Laerm;45943;53.148;8.204;2022-09-21T01:06:19;59.19;41.74;76.83;;
49215;Laerm;45943;53.148;8.204;2022-09-21T01:08:49;44.46;40.06;51.08;;
49215;Laerm;45943;53.148;8.204;2022-09-21T01:16:46;48.00;43.79;58.09;;
49215;Laerm;45943;53.148;8.204;2022-09-21T01:20:02;44.82;39.12;51.78;;
49215;Laerm;45943;53.148;8.204;2022-09-21T01:22:09;45.14;40.30;55.61;;
49215;Laerm;45943;53.148;8.204;2022-09-21T01:24:59;64.89;40.83;77.36;;
49215;Laerm;45943;53.148;8.204;2022-09-21T01:30:08;45.94;42.49;55.25;;
49215;Laerm;45943;53.148;8.204;2022-09-21T01:32:42;44.42;39.68;49.94;;
49215;Laerm;45943;53.148;8.204;2022-09-21T01:35:16;44.05;40.28;51.15;;
49215;Laerm;45943;53.148;8.204;2022-09-21T01:37:47;48.08;41.22;59.71;;
49215;Laerm;45943;53.148;8.204;2022-09-21T01:40:21;49.59;42.49;61.02;;
49215;Laerm;45943;53.148;8.204;2022-09-21T01:42:50;46.86;41.22;57.04;;
49215;Laerm;45943;53.148;8.204;2022-09-21T01:45:24;44.15;39.27;54.24;;
49215;Laerm;45943;53.148;8.204;2022-09-21T01:47:54;46.82;41.13;54.98;;
49215;Laerm;45943;53.148;8.204;2022-09-21T01:50:23;47.32;41.90;56.48;;
49215;Laerm;45943;53.148;8.204;2022-09-21T01:53:24;47.14;41.58;56.50;;
49215;Laerm;45943;53.148;8.204;2022-09-21T01:55:57;47.19;42.56;57.39;;
49215;Laerm;45943;53.148;8.204;2022-09-21T01:58:30;44.86;41.66;53.17;;
49215;Laerm;45943;53.148;8.204;2022-09-21T02:00:58;43.40;39.68;50.27;;
49215;Laerm;45943;53.148;8.204;2022-09-21T02:03:47;43.45;39.68;47.96;;
49215;Laerm;45943;53.148;8.204;2022-09-21T02:06:16;45.63;41.13;53.73;;
49215;Laerm;45943;53.148;8.204;2022-09-21T02:08:43;47.62;41.14;58.91;;
49215;Laerm;45943;53.148;8.204;2022-09-21T02:11:10;52.58;43.89;68.05;;
49215;Laerm;45943;53.148;8.204;2022-09-21T02:13:43;68.12;43.74;82.21;;
49215;Laerm;45943;53.148;8.204;2022-09-21T02:27:05;44.97;41.13;51.85;;
49215;Laerm;45943;53.148;8.204;2022-09-21T02:30:25;46.64;43.01;55.59;;
49215;Laerm;45943;53.148;8.204;2022-09-21T02:35:47;46.15;43.01;59.02;;
49215;Laerm;45943;53.148;8.204;2022-09-21T02:43:50;51.40;44.59;57.91;;
49215;Laerm;45943;53.148;8.204;2022-09-21T02:46:25;49.86;44.32;60.33;;
49215;Laerm;45943;53.148;8.204;2022-09-21T02:48:57;48.20;44.28;54.50;;
49215;Laerm;45943;53.148;8.204;2022-09-21T02:51:32;50.22;42.13;64.72;;
49215;Laerm;45943;53.148;8.204;2022-09-21T02:54:03;50.10;43.53;63.30;;
49215;Laerm;45943;53.148;8.204;2022-09-21T02:56:31;48.27;43.02;56.48;;
49215;Laerm;45943;53.148;8.204;2022-09-21T02:59:01;50.45;43.94;58.19;;
49215;Laerm;45943;53.148;8.204;2022-09-21T03:01:29;50.17;44.75;59.21;;
49215;Laerm;45943;53.148;8.204;2022-09-21T03:03:56;48.63;43.79;55.49;;
49215;Laerm;45943;53.148;8.204;2022-09-21T03:06:22;48.73;43.31;63.77;;
49215;Laerm;45943;53.148;8.204;2022-09-21T03:08:48;50.34;43.13;64.68;;
49215;Laerm;45943;53.148;8.204;2022-09-21T03:11:18;49.18;44.63;57.99;;
49215;Laerm;45943;53.148;8.204;2022-09-21T03:13:45;54.21;45.83;67.63;;
49215;Laerm;45943;53.148;8.204;2022-09-21T03:16:12;55.33;45.87;71.44;;
49215;Laerm;45943;53.148;8.204;2022-09-21T03:18:38;47.06;44.54;52.40;;
49215;Laerm;45943;53.148;8.204;2022-09-21T03:21:05;47.59;43.89;55.59;;
49215;Laerm;45943;53.148;8.204;2022-09-21T03:23:31;48.40;44.99;52.80;;
49215;Laerm;45943;53.148;8.204;2022-09-21T03:25:57;49.88;44.75;62.56;;
49215;Laerm;45943;53.148;8.204;2022-09-21T03:28:23;56.88;45.47;70.18;;
49215;Laerm;45943;53.148;8.204;2022-09-21T03:30:50;48.84;44.91;56.63;;
49215;Laerm;45943;53.148;8.204;2022-09-21T03:33:18;48.54;44.83;57.02;;
49215;Laerm;45943;53.148;8.204;2022-09-21T03:35:44;51.06;45.50;64.27;;
49215;Laerm;45943;53.148;8.204;2022-09-21T03:38:11;53.53;48.73;60.01;;
49215;Laerm;45943;53.148;8.204;2022-09-21T03:40:37;57.55;48.65;72.14;;
49215;Laerm;45943;53.148;8.204;2022-09-21T03:43:03;52.12;46.61;60.06;;
49215;Laerm;45943;53.148;8.204;2022-09-21T03:45:29;52.74;46.23;59.22;;
49215;Laerm;45943;53.148;8.204;2022-09-21T03:47:56;51.39;46.02;55.88;;
49215;Laerm;45943;53.148;8.204;2022-09-21T03:50:27;51.17;46.51;56.65;;
49215;Laerm;45943;53.148;8.204;2022-09-21T03:52:54;53.04;46.65;66.12;;
49215;Laerm;45943;53.148;8.204;2022-09-21T03:55:20;49.27;45.36;55.19;;
49215;Laerm;45943;53.148;8.204;2022-09-21T03:57:47;49.78;45.50;56.16;;
49215;Laerm;45943;53.148;8.204;2022-09-21T04:00:14;59.99;47.60;75.41;;
49215;Laerm;45943;53.148;8.204;2022-09-21T04:02:40;59.20;55.81;68.47;;
49215;Laerm;45943;53.148;8.204;2022-09-21T04:05:11;64.21;54.29;80.85;;
49215;Laerm;45943;53.148;8.204;2022-09-21T04:07:40;61.29;46.17;83.76;;
49215;Laerm;45943;53.148;8.204;2022-09-21T04:10:09;51.66;46.57;62.42;;
49215;Laerm;45943;53.148;8.204;2022-09-21T04:12:39;51.00;45.99;60.47;;
49215;Laerm;45943;53.148;8.204;2022-09-21T04:15:16;49.91;46.26;54.72;;
49215;Laerm;45943;53.148;8.204;2022-09-21T04:17:45;51.90;45.57;66.19;;
49215;Laerm;45943;53.148;8.204;2022-09-21T04:20:11;51.32;46.90;64.91;;
49215;Laerm;45943;53.148;8.204;2022-09-21T04:22:37;57.87;47.40;74.45;;
49215;Laerm;45943;53.148;8.204;2022-09-21T04:25:04;54.26;47.47;67.84;;
49215;Laerm;45943;53.148;8.204;2022-09-21T04:27:31;53.28;47.80;64.85;;
49215;Laerm;45943;53.148;8.204;2022-09-21T04:29:58;54.09;46.90;65.38;;
49215;Laerm;45943;53.148;8.204;2022-09-21T04:32:24;52.02;47.36;64.07;;
49215;Laerm;45943;53.148;8.204;2022-09-21T04:34:50;52.18;46.59;67.55;;
49215;Laerm;45943;53.148;8.204;2022-09-21T04:37:16;56.57;48.12;72.45;;
49215;Laerm;45943;53.148;8.204;2022-09-21T04:39:42;59.79;50.30;72.12;;
49215;Laerm;45943;53.148;8.204;2022-09-21T04:42:09;57.00;50.06;77.04;;
49215;Laerm;45943;53.148;8.204;2022-09-21T04:44:35;54.57;48.32;70.04;;
49215;Laerm;45943;53.148;8.204;2022-09-21T04:47:01;52.51;48.34;63.28;;
49215;Laerm;45943;53.148;8.204;2022-09-21T04:49:27;52.18;48.00;59.82;;
49215;Laerm;45943;53.148;8.204;2022-09-21T04:51:53;52.80;47.71;62.57;;
49215;Laerm;45943;53.148;8.204;2022-09-21T04:54:19;56.23;48.28;68.12;;
49215;Laerm;45943;53.148;8.204;2022-09-21T04:56:47;53.03;48.12;62.49;;
49215;Laerm;45943;53.148;8.204;2022-09-21T04:59:13;53.47;48.78;62.66;;
49215;Laerm;45943;53.148;8.204;2022-09-21T05:01:39;57.28;47.92;70.57;;
49215;Laerm;45943;53.148;8.204;2022-09-21T05:04:05;54.20;47.22;70.50;;
49215;Laerm;45943;53.148;8.204;2022-09-21T05:06:32;54.17;48.55;65.01;;
49215;Laerm;45943;53.148;8.204;2022-09-21T05:08:59;54.52;50.09;62.83;;
49215;Laerm;45943;53.148;8.204;2022-09-21T05:11:44;55.04;49.99;65.74;;
49215;Laerm;45943;53.148;8.204;2022-09-21T05:14:11;56.18;50.25;67.33;;
49215;Laerm;45943;53.148;8.204;2022-09-21T05:16:37;54.58;50.07;61.83;;
49215;Laerm;45943;53.148;8.204;2022-09-21T05:19:03;56.42;50.79;65.22;;
49215;Laerm;45943;53.148;8.204;2022-09-21T05:21:30;56.79;52.16;70.08;;
49215;Laerm;45943;53.148;8.204;2022-09-21T05:23:58;57.12;51.19;73.55;;
49215;Laerm;45943;53.148;8.204;2022-09-21T05:26:24;61.07;50.65;76.46;;
49215;Laerm;45943;53.148;8.204;2022-09-21T05:28:54;58.90;51.87;79.60;;
49215;Laerm;45943;53.148;8.204;2022-09-21T05:31:40;62.65;52.10;83.05;;
49215;Laerm;45943;53.148;8.204;2022-09-21T05:39:43;58.99;50.78;79.67;;
49215;Laerm;45943;53.148;8.204;2022-09-21T05:42:13;66.92;57.05;82.95;;
49215;Laerm;45943;53.148;8.204;2022-09-21T05:44:39;61.51;57.38;69.38;;
49215;Laerm;45943;53.148;8.204;2022-09-21T05:58:08;62.17;57.12;74.70;;
49215;Laerm;45943;53.148;8.204;2022-09-21T06:00:44;69.23;57.19;90.34;;
49215;Laerm;45943;53.148;8.204;2022-09-21T06:03:28;62.02;57.22;82.15;;
49215;Laerm;45943;53.148;8.204;2022-09-21T06:05:55;61.30;57.43;77.71;;
49215;Laerm;45943;53.148;8.204;2022-09-21T06:08:22;62.00;57.83;70.01;;
49215;Laerm;45943;53.148;8.204;2022-09-21T06:10:48;64.49;56.79;85.81;;
49215;Laerm;45943;53.148;8.204;2022-09-21T06:13:14;66.44;56.91;91.82;;
49215;Laerm;45943;53.148;8.204;2022-09-21T06:15:40;69.36;57.62;91.71;;
49215;Laerm;45943;53.148;8.204;2022-09-21T06:18:07;67.15;57.95;89.86;;
49215;Laerm;45943;53.148;8.204;2022-09-21T06:20:33;66.76;57.12;89.51;;
49215;Laerm;45943;53.148;8.204;2022-09-21T06:23:05;64.23;56.83;88.25;;
49215;Laerm;45943;53.148;8.204;2022-09-21T06:25:31;61.30;57.70;67.73;;
49215;Laerm;45943;53.148;8.204;2022-09-21T06:28:09;61.73;57.78;74.12;;
49215;Laerm;45943;53.148;8.204;2022-09-21T06:30:36;62.66;57.52;85.35;;
49215;Laerm;45943;53.148;8.204;2022-09-21T06:33:05;64.58;56.76;95.02;;
49215;Laerm;45943;53.148;8.204;2022-09-21T06:35:33;61.19;56.69;72.65;;
49215;Laerm;45943;53.148;8.204;2022-09-21T06:38:05;60.83;56.89;69.20;;
49215;Laerm;45943;53.148;8.204;2022-09-21T06:40:33;60.94;56.73;70.37;;
49215;Laerm;45943;53.148;8.204;2022-09-21T06:43:00;63.32;56.90;73.66;;
49215;Laerm;45943;53.148;8.204;2022-09-21T06:45:28;61.16;56.03;71.35;;
49215;Laerm;45943;53.148;8.204;2022-09-21T06:47:55;60.99;56.97;68.68;;
49215;Laerm;45943;53.148;8.204;2022-09-21T06:50:22;61.19;56.33;73.33;;
49215;Laerm;45943;53.148;8.204;2022-09-21T06:52:48;60.57;56.79;70.20;;
49215;Laerm;45943;53.148;8.204;2022-09-21T06:55:14;61.18;56.40;74.30;;
49215;Laerm;45943;53.148;8.204;2022-09-21T06:57:40;60.59;56.10;67.48;;
49215;Laerm;45943;53.148;8.204;2022-09-21T07:00:09;60.38;56.22;67.46;;
49215;Laerm;45943;53.148;8.204;2022-09-21T07:02:35;60.02;56.09;66.93;;
49215;Laerm;45943;53.148;8.204;2022-09-21T07:05:02;59.94;55.64;64.92;;
49215;Laerm;45943;53.148;8.204;2022-09-21T07:07:29;60.63;56.43;78.71;;
49215;Laerm;45943;53.148;8.204;2022-09-21T07:09:57;61.91;56.26;81.02;;
49215;Laerm;45943;53.148;8.204;2022-09-21T07:12:27;62.79;56.11;80.10;;
49215;Laerm;45943;53.148;8.204;2022-09-21T07:14:53;60.77;55.69;75.97;;
49215;Laerm;45943;53.148;8.204;2022-09-21T07:17:19;59.84;55.48;66.74;;
49215;Laerm;45943;53.148;8.204;2022-09-21T07:19:46;59.93;55.48;77.49;;
49215;Laerm;45943;53.148;8.204;2022-09-21T07:22:12;60.45;54.84;68.61;;
49215;Laerm;45943;53.148;8.204;2022-09-21T07:24:38;62.70;56.37;75.47;;
49215;Laerm;45943;53.148;8.204;2022-09-21T07:27:04;60.76;56.13;79.71;;
49215;Laerm;45943;53.148;8.204;2022-09-21T07:29:30;59.33;55.68;68.03;;
49215;Laerm;45943;53.148;8.204;2022-09-21T07:31:57;60.27;55.49;69.26;;
49215;Laerm;45943;53.148;8.204;2022-09-21T07:34:23;60.15;55.08;69.19;;
49215;Laerm;45943;53.148;8.204;2022-09-21T07:36:49;60.07;55.36;67.96;;
49215;Laerm;45943;53.148;8.204;2022-09-21T07:39:15;59.97;55.22;72.23;;
49215;Laerm;45943;53.148;8.204;2022-09-21T07:41:41;66.33;56.23;81.89;;
49215;Laerm;45943;53.148;8.204;2022-09-21T07:44:07;60.30;55.76;70.04;;
49215;Laerm;45943;53.148;8.204;2022-09-21T07:46:33;59.42;55.52;64.83;;
49215;Laerm;45943;53.148;8.204;2022-09-21T07:48:59;60.05;55.50;69.26;;
49215;Laerm;45943;53.148;8.204;2022-09-21T07:51:25;61.78;54.85;80.02;;
49215;Laerm;45943;53.148;8.204;2022-09-21T07:53:55;61.28;55.72;71.93;;
49215;Laerm;45943;53.148;8.204;2022-09-21T07:56:24;59.44;54.50;65.14;;
49215;Laerm;45943;53.148;8.204;2022-09-21T07:58:53;62.74;54.52;80.51;;
49215;Laerm;45943;53.148;8.204;2022-09-21T08:01:40;62.77;55.13;80.49;;
49215;Laerm;45943;53.148;8.204;2022-09-21T08:04:08;59.01;54.29;68.02;;
49215;Laerm;45943;53.148;8.204;2022-09-21T08:06:36;59.23;55.06;66.77;;
49215;Laerm;45943;53.148;8.204;2022-09-21T08:09:05;60.08;54.83;71.32;;
49215;Laerm;45943;53.148;8.204;2022-09-21T08:11:32;59.16;55.31;64.67;;
49215;Laerm;45943;53.148;8.204;2022-09-21T08:14:01;59.03;54.89;64.16;;
49215;Laerm;45943;53.148;8.204;2022-09-21T08:16:28;59.35;54.68;66.17;;
49215;Laerm;45943;53.148;8.204;2022-09-21T08:18:55;58.79;54.58;62.83;;
49215;Laerm;45943;53.148;8.204;2022-09-21T08:21:21;59.35;54.42;65.69;;
49215;Laerm;45943;53.148;8.204;2022-09-21T08:23:48;59.06;54.67;63.70;;
49215;Laerm;45943;53.148;8.204;2022-09-21T08:26:18;62.56;55.36;77.15;;
49215;Laerm;45943;53.148;8.204;2022-09-21T08:28:45;58.58;54.21;64.31;;
49215;Laerm;45943;53.148;8.204;2022-09-21T08:31:16;58.28;54.67;61.88;;
49215;Laerm;45943;53.148;8.204;2022-09-21T08:33:45;58.56;54.24;63.68;;
49215;Laerm;45943;53.148;8.204;2022-09-21T08:36:11;59.13;54.38;66.75;;
49215;Laerm;45943;53.148;8.204;2022-09-21T08:38:52;58.58;54.42;63.80;;
49215;Laerm;45943;53.148;8.204;2022-09-21T08:43:52;58.74;54.03;65.50;;
49215;Laerm;45943;53.148;8.204;2022-09-21T08:46:22;57.93;54.17;61.51;;
49215;Laerm;45943;53.148;8.204;2022-09-21T08:48:55;58.74;54.17;66.88;;
49215;Laerm;45943;53.148;8.204;2022-09-21T08:51:26;59.43;53.79;68.37;;
49215;Laerm;45943;53.148;8.204;2022-09-21T08:53:59;58.44;54.42;63.88;;
49215;Laerm;45943;53.148;8.204;2022-09-21T08:56:28;59.06;54.64;67.60;;
49215;Laerm;45943;53.148;8.204;2022-09-21T08:58:55;59.23;54.23;66.56;;
49215;Laerm;45943;53.148;8.204;2022-09-21T09:13:14;58.48;54.05;64.61;;
49215;Laerm;45943;53.148;8.204;2022-09-21T09:15:58;58.86;54.05;66.20;;
49215;Laerm;45943;53.148;8.204;2022-09-21T09:21:31;59.45;54.49;74.22;;
49215;Laerm;45943;53.148;8.204;2022-09-21T09:24:08;59.01;54.38;65.11;;
49215;Laerm;45943;53.148;8.204;2022-09-21T09:26:45;60.28;53.91;71.04;;
49215;Laerm;45943;53.148;8.204;2022-09-21T09:29:34;61.35;54.40;80.59;;
49215;Laerm;45943;53.148;8.204;2022-09-21T09:32:05;59.02;54.54;67.36;;
49215;Laerm;45943;53.148;8.204;2022-09-21T09:34:50;59.94;53.71;76.20;;
49215;Laerm;45943;53.148;8.204;2022-09-21T09:37:22;59.24;54.55;66.34;;
49215;Laerm;45943;53.148;8.204;2022-09-21T09:39:54;61.18;54.01;73.74;;
49215;Laerm;45943;53.148;8.204;2022-09-21T09:46:02;58.68;53.72;67.14;;
49215;Laerm;45943;53.148;8.204;2022-09-21T09:51:38;58.66;54.27;72.05;;
49215;Laerm;45943;53.148;8.204;2022-09-21T09:54:15;59.18;54.28;65.66;;
49215;Laerm;45943;53.148;8.204;2022-09-21T09:56:42;59.28;54.31;66.53;;
49215;Laerm;45943;53.148;8.204;2022-09-21T09:59:25;58.49;54.11;64.54;;
49215;Laerm;45943;53.148;8.204;2022-09-21T10:02:04;58.50;54.17;76.25;;
49215;Laerm;45943;53.148;8.204;2022-09-21T10:04:31;58.69;53.80;69.04;;
49215;Laerm;45943;53.148;8.204;2022-09-21T10:07:00;58.96;53.84;65.94;;
49215;Laerm;45943;53.148;8.204;2022-09-21T10:09:32;58.56;54.05;64.69;;
49215;Laerm;45943;53.148;8.204;2022-09-21T10:12:18;58.00;54.03;65.68;;
49215;Laerm;45943;53.148;8.204;2022-09-21T10:14:53;59.18;54.43;68.04;;
49215;Laerm;45943;53.148;8.204;2022-09-21T10:17:24;60.01;54.01;70.06;;
49215;Laerm;45943;53.148;8.204;2022-09-21T10:19:59;61.30;54.27;84.38;;
49215;Laerm;45943;53.148;8.204;2022-09-21T10:22:27;58.82;54.33;64.36;;
49215;Laerm;45943;53.148;8.204;2022-09-21T10:24:54;58.77;54.53;65.38;;
49215;Laerm;45943;53.148;8.204;2022-09-21T10:27:34;58.81;53.86;65.78;;
49215;Laerm;45943;53.148;8.204;2022-09-21T10:30:03;58.25;54.08;62.49;;
49215;Laerm;45943;53.148;8.204;2022-09-21T10:32:29;58.18;53.67;65.98;;
49215;Laerm;45943;53.148;8.204;2022-09-21T10:37:40;58.81;54.27;64.56;;
49215;Laerm;45943;53.148;8.204;2022-09-21T10:42:45;60.21;53.94;72.40;;
49215;Laerm;45943;53.148;8.204;2022-09-21T10:45:22;58.10;53.55;65.89;;
49215;Laerm;45943;53.148;8.204;2022-09-21T10:53:09;57.91;53.69;68.09;;
49215;Laerm;45943;53.148;8.204;2022-09-21T10:55:38;57.73;53.75;62.66;;
49215;Laerm;45943;53.148;8.204;2022-09-21T10:58:12;58.28;53.77;65.40;;
49215;Laerm;45943;53.148;8.204;2022-09-21T11:01:19;58.65;53.32;66.54;;
49215;Laerm;45943;53.148;8.204;2022-09-21T11:04:10;58.13;53.60;64.92;;
49215;Laerm;45943;53.148;8.204;2022-09-21T11:06:49;58.66;54.09;65.94;;
49215;Laerm;45943;53.148;8.204;2022-09-21T11:09:37;57.57;53.40;62.79;;
49215;Laerm;45943;53.148;8.204;2022-09-21T11:15:20;60.38;54.04;73.71;;
49215;Laerm;45943;53.148;8.204;2022-09-21T11:18:06;61.46;54.76;80.71;;
49215;Laerm;45943;53.148;8.204;2022-09-21T11:20:46;59.78;54.03;71.31;;
49215;Laerm;45943;53.148;8.204;2022-09-21T11:23:38;58.64;53.97;63.63;;
49215;Laerm;45943;53.148;8.204;2022-09-21T11:28:48;62.54;53.29;69.45;;
49215;Laerm;45943;53.148;8.204;2022-09-21T11:37:23;58.36;53.26;66.07;;
49215;Laerm;45943;53.148;8.204;2022-09-21T11:45:42;58.90;53.57;71.27;;
49215;Laerm;45943;53.148;8.204;2022-09-21T11:51:07;60.06;52.69;81.34;;
49215;Laerm;45943;53.148;8.204;2022-09-21T12:12:42;58.48;52.82;74.44;;
49215;Laerm;45943;53.148;8.204;2022-09-21T12:15:22;58.18;53.79;72.48;;
49215;Laerm;45943;53.148;8.204;2022-09-21T12:20:46;58.44;54.06;65.29;;
49215;Laerm;45943;53.148;8.204;2022-09-21T12:23:20;58.43;53.40;71.14;;
49215;Laerm;45943;53.148;8.204;2022-09-21T12:25:49;59.34;54.40;66.42;;
49215;Laerm;45943;53.148;8.204;2022-09-21T12:28:30;58.67;54.04;65.93;;
49215;Laerm;45943;53.148;8.204;2022-09-21T12:31:05;59.56;54.17;76.39;;
49215;Laerm;45943;53.148;8.204;2022-09-21T12:33:56;60.83;54.85;74.96;;
49215;Laerm;45943;53.148;8.204;2022-09-21T12:36:35;60.05;55.11;70.54;;
49215;Laerm;45943;53.148;8.204;2022-09-21T12:39:06;61.04;55.83;74.80;;
49215;Laerm;45943;53.148;8.204;2022-09-21T12:41:47;60.54;54.17;66.82;;
49215;Laerm;45943;53.148;8.204;2022-09-21T12:44:22;59.56;54.18;84.25;;
49215;Laerm;45943;53.148;8.204;2022-09-21T12:47:03;61.21;54.87;73.33;;
49215;Laerm;45943;53.148;8.204;2022-09-21T12:49:43;62.16;53.89;79.21;;
49215;Laerm;45943;53.148;8.204;2022-09-21T12:52:17;61.28;53.16;73.96;;
49215;Laerm;45943;53.148;8.204;2022-09-21T12:54:46;59.05;54.04;69.07;;
49215;Laerm;45943;53.148;8.204;2022-09-21T12:57:53;59.28;53.81;71.03;;
49215;Laerm;45943;53.148;8.204;2022-09-21T13:00:28;57.82;52.77;70.13;;
49215;Laerm;45943;53.148;8.204;2022-09-21T13:03:03;58.24;53.89;66.83;;
49215;Laerm;45943;53.148;8.204;2022-09-21T13:05:42;52.76;40.06;66.03;;
49215;Laerm;45943;53.148;8.204;2022-09-21T13:11:51;53.36;40.83;68.39;;
49215;Laerm;45943;53.148;8.204;2022-09-21T13:14:20;51.06;40.52;69.61;;
49215;Laerm;45943;53.148;8.204;2022-09-21T13:23:36;55.77;38.48;73.07;;
49215;Laerm;45943;53.148;8.204;2022-09-21T13:26:09;55.35;39.68;73.90;;
49215;Laerm;45943;53.148;8.204;2022-09-21T13:29:00;52.31;39.55;71.78;;
49215;Laerm;45943;53.148;8.204;2022-09-21T13:36:44;54.18;39.41;71.63;;
49215;Laerm;45943;53.148;8.204;2022-09-21T13:39:15;53.80;39.81;72.33;;
49215;Laerm;45943;53.148;8.204;2022-09-21T13:41:42;58.06;40.63;72.67;;
49215;Laerm;45943;53.148;8.204;2022-09-21T13:44:39;51.52;39.27;74.74;;
49215;Laerm;45943;53.148;8.204;2022-09-21T13:47:07;55.22;44.79;76.57;;
49215;Laerm;45943;53.148;8.204;2022-09-21T13:49:41;60.56;47.33;78.50;;
49215;Laerm;45943;53.148;8.204;2022-09-21T13:57:24;47.98;40.30;62.15;;
49215;Laerm;45943;53.148;8.204;2022-09-21T14:02:38;51.33;41.40;65.18;;
49215;Laerm;45943;53.148;8.204;2022-09-21T14:05:29;65.20;39.68;78.93;;
49215;Laerm;45943;53.148;8.204;2022-09-21T14:24:43;67.26;39.68;76.95;;
49215;Laerm;45943;53.148;8.204;2022-09-21T14:30:21;55.76;38.65;74.16;;
49215;Laerm;45943;53.148;8.204;2022-09-21T14:33:00;63.75;40.73;84.62;;
49215;Laerm;45943;53.148;8.204;2022-09-21T14:35:40;64.03;41.03;89.48;;
49215;Laerm;45943;53.148;8.204;2022-09-21T14:38:39;56.86;42.69;82.18;;
49215;Laerm;45943;53.148;8.204;2022-09-21T14:41:06;53.38;42.56;67.17;;
49215;Laerm;45943;53.148;8.204;2022-09-21T14:43:35;56.54;41.98;82.45;;
49215;Laerm;45943;53.148;8.204;2022-09-21T14:54:37;53.86;40.18;80.57;;
49215;Laerm;45943;53.148;8.204;2022-09-21T15:00:13;51.42;40.18;72.07;;
49215;Laerm;45943;53.148;8.204;2022-09-21T15:02:48;53.78;40.52;72.80;;
49215;Laerm;45943;53.148;8.204;2022-09-21T15:05:35;51.77;37.72;66.18;;
49215;Laerm;45943;53.148;8.204;2022-09-21T15:11:25;55.52;40.63;74.69;;
49215;Laerm;45943;53.148;8.204;2022-09-21T15:16:39;50.40;40.73;64.36;;
49215;Laerm;45943;53.148;8.204;2022-09-21T15:19:26;51.34;38.65;65.82;;
49215;Laerm;45943;53.148;8.204;2022-09-21T15:21:55;57.31;39.94;70.73;;
49215;Laerm;45943;53.148;8.204;2022-09-21T15:24:27;49.90;38.65;66.94;;
49215;Laerm;45943;53.148;8.204;2022-09-21T15:27:13;52.69;38.81;65.87;;
49215;Laerm;45943;53.148;8.204;2022-09-21T15:29:45;65.59;39.27;83.11;;
49215;Laerm;45943;53.148;8.204;2022-09-21T15:34:57;51.75;38.12;65.24;;
49215;Laerm;45943;53.148;8.204;2022-09-21T15:37:26;53.97;38.81;65.33;;
49215;Laerm;45943;53.148;8.204;2022-09-21T15:40:01;60.51;38.81;75.11;;
49215;Laerm;45943;53.148;8.204;2022-09-21T15:42:27;53.50;40.06;68.94;;
49215;Laerm;45943;53.148;8.204;2022-09-21T15:45:13;54.65;39.12;75.09;;
49215;Laerm;45943;53.148;8.204;2022-09-21T15:47:40;51.36;37.72;63.32;;
49215;Laerm;45943;53.148;8.204;2022-09-21T15:50:15;51.97;38.48;62.52;;
49215;Laerm;45943;53.148;8.204;2022-09-21T15:52:48;51.51;39.12;64.26;;
49215;Laerm;45943;53.148;8.204;2022-09-21T15:55:18;51.33;38.97;66.06;;
49215;Laerm;45943;53.148;8.204;2022-09-21T15:57:48;49.85;38.47;61.46;;
49215;Laerm;45943;53.148;8.204;2022-09-21T16:02:54;53.02;40.93;65.74;;
49215;Laerm;45943;53.148;8.204;2022-09-21T16:05:21;52.31;39.55;64.13;;
49215;Laerm;45943;53.148;8.204;2022-09-21T16:07:48;51.40;39.81;65.49;;
49215;Laerm;45943;53.148;8.204;2022-09-21T16:13:17;53.25;39.81;70.18;;
49215;Laerm;45943;53.148;8.204;2022-09-21T16:18:32;48.77;39.34;61.08;;
49215;Laerm;45943;53.148;8.204;2022-09-21T16:21:23;47.67;38.81;62.55;;
49215;Laerm;45943;53.148;8.204;2022-09-21T16:23:56;57.62;39.68;73.57;;
49215;Laerm;45943;53.148;8.204;2022-09-21T16:26:34;50.60;40.18;62.39;;
49215;Laerm;45943;53.148;8.204;2022-09-21T16:29:23;62.96;39.41;79.57;;
49215;Laerm;45943;53.148;8.204;2022-09-21T16:34:43;48.00;38.81;60.47;;
49215;Laerm;45943;53.148;8.204;2022-09-21T16:39:45;59.80;39.47;73.47;;
49215;Laerm;45943;53.148;8.204;2022-09-21T16:42:11;48.97;38.30;62.13;;
49215;Laerm;45943;53.148;8.204;2022-09-21T16:44:38;50.39;38.12;66.44;;
49215;Laerm;45943;53.148;8.204;2022-09-21T16:47:15;49.12;39.55;61.39;;
49215;Laerm;45943;53.148;8.204;2022-09-21T16:49:48;52.31;37.92;63.56;;
49215;Laerm;45943;53.148;8.204;2022-09-21T16:52:15;49.18;39.94;63.78;;
49215;Laerm;45943;53.148;8.204;2022-09-21T16:54:42;45.72;39.55;62.15;;
49215;Laerm;45943;53.148;8.204;2022-09-21T16:57:10;63.11;38.81;76.07;;
49215;Laerm;45943;53.148;8.204;2022-09-21T16:59:37;50.42;38.48;67.63;;
49215;Laerm;45943;53.148;8.204;2022-09-21T17:02:03;49.40;39.41;61.78;;
49215;Laerm;45943;53.148;8.204;2022-09-21T17:04:31;50.11;39.55;70.94;;
49215;Laerm;45943;53.148;8.204;2022-09-21T17:06:58;52.30;39.41;68.29;;
49215;Laerm;45943;53.148;8.204;2022-09-21T17:09:36;49.65;39.55;64.32;;
49215;Laerm;45943;53.148;8.204;2022-09-21T17:12:06;49.05;39.81;61.24;;
49215;Laerm;45943;53.148;8.204;2022-09-21T17:14:34;49.50;38.65;64.67;;
49215;Laerm;45943;53.148;8.204;2022-09-21T17:19:29;48.67;39.55;62.73;;
49215;Laerm;45943;53.148;8.204;2022-09-21T17:21:56;53.73;40.06;69.96;;
49215;Laerm;45943;53.148;8.204;2022-09-21T17:24:24;46.64;40.06;58.11;;
49215;Laerm;45943;53.148;8.204;2022-09-21T17:26:51;52.04;40.52;64.97;;
49215;Laerm;45943;53.148;8.204;2022-09-21T17:29:22;49.08;40.41;60.52;;